sensor_id;sensor_type;location;lat;lon;timestamp;P1;durP1;ratioP1;P2;durP2;ratioP2
7412;SDS011;3748;48.136;11.538;2023-02-18T00:01:22;7.10;;;3.37;;
7412;SDS011;3748;48.136;11.538;2023-02-18T00:03:49;7.83;;;3.73;;
7412;SDS011;3748;48.136;11.538;2023-02-18T00:06:19;4.60;;;2.07;;
7412;SDS011;3748;48.136;11.538;2023-02-18T00:08:47;2.90;;;2.50;;
7412;SDS011;3748;48.136;11.538;2023-02-18T00:11:16;3.10;;;2.47;;
7412;SDS011;3748;48.136;11.538;2023-02-18T00:13:48;2.20;;;2.00;;
7412;SDS011;3748;48.136;11.538;2023-02-18T00:16:16;4.27;;;2.77;;
7412;SDS011;3748;48.136;11.538;2023-02-18T00:18:43;2.87;;;2.57;;
7412;SDS011;3748;48.136;11.538;2023-02-18T00:21:10;7.83;;;3.90;;
7412;SDS011;3748;48.136;11.538;2023-02-18T00:23:38;4.97;;;3.10;;
7412;SDS011;3748;48.136;11.538;2023-02-18T00:26:05;2.73;;;2.10;;
7412;SDS011;3748;48.136;11.538;2023-02-18T00:28:33;4.73;;;3.37;;
7412;SDS011;3748;48.136;11.538;2023-02-18T00:31:04;3.03;;;2.70;;
7412;SDS011;3748;48.136;11.538;2023-02-18T00:33:32;4.40;;;2.60;;
7412;SDS011;3748;48.136;11.538;2023-02-18T00:36:00;3.37;;;2.43;;
7412;SDS011;3748;48.136;11.538;2023-02-18T00:38:27;2.70;;;2.50;;
7412;SDS011;3748;48.136;11.538;2023-02-18T00:40:56;3.27;;;2.07;;
7412;SDS011;3748;48.136;11.538;2023-02-18T00:43:22;4.40;;;2.20;;
7412;SDS011;3748;48.136;11.538;2023-02-18T00:45:50;3.37;;;2.30;;
7412;SDS011;3748;48.136;11.538;2023-02-18T00:48:17;3.00;;;2.03;;
7412;SDS011;3748;48.136;11.538;2023-02-18T00:50:43;2.40;;;1.87;;
7412;SDS011;3748;48.136;11.538;2023-02-18T00:53:10;3.83;;;2.40;;
7412;SDS011;3748;48.136;11.538;2023-02-18T00:55:38;3.90;;;2.23;;
7412;SDS011;3748;48.136;11.538;2023-02-18T00:58:06;3.00;;;2.33;;
7412;SDS011;3748;48.136;11.538;2023-02-18T01:00:33;3.83;;;2.10;;
7412;SDS011;3748;48.136;11.538;2023-02-18T01:03:00;2.30;;;1.80;;
7412;SDS011;3748;48.136;11.538;2023-02-18T01:05:27;3.30;;;2.30;;
7412;SDS011;3748;48.136;11.538;2023-02-18T01:07:54;3.40;;;1.90;;
7412;SDS011;3748;48.136;11.538;2023-02-18T01:10:20;2.27;;;2.07;;
7412;SDS011;3748;48.136;11.538;2023-02-18T01:12:47;2.30;;;1.70;;
7412;SDS011;3748;48.136;11.538;2023-02-18T01:15:16;5.67;;;2.20;;
7412;SDS011;3748;48.136;11.538;2023-02-18T01:17:43;3.07;;;2.00;;
7412;SDS011;3748;48.136;11.538;2023-02-18T01:20:10;2.27;;;2.03;;
7412;SDS011;3748;48.136;11.538;2023-02-18T01:22:38;3.30;;;1.63;;
7412;SDS011;3748;48.136;11.538;2023-02-18T01:25:05;2.90;;;2.40;;
7412;SDS011;3748;48.136;11.538;2023-02-18T01:27:33;4.27;;;1.77;;
7412;SDS011;3748;48.136;11.538;2023-02-18T01:30:00;2.73;;;2.50;;
7412;SDS011;3748;48.136;11.538;2023-02-18T01:32:29;2.20;;;1.70;;
7412;SDS011;3748;48.136;11.538;2023-02-18T01:34:55;2.40;;;2.20;;
7412;SDS011;3748;48.136;11.538;2023-02-18T01:37:22;2.20;;;2.00;;
7412;SDS011;3748;48.136;11.538;2023-02-18T01:39:49;4.10;;;3.17;;
7412;SDS011;3748;48.136;11.538;2023-02-18T01:42:17;5.37;;;2.40;;
7412;SDS011;3748;48.136;11.538;2023-02-18T01:44:45;2.40;;;2.13;;
7412;SDS011;3748;48.136;11.538;2023-02-18T01:47:13;3.97;;;3.10;;
7412;SDS011;3748;48.136;11.538;2023-02-18T01:49:41;2.90;;;2.60;;
7412;SDS011;3748;48.136;11.538;2023-02-18T01:52:12;4.70;;;3.03;;
7412;SDS011;3748;48.136;11.538;2023-02-18T01:54:43;5.27;;;3.73;;
7412;SDS011;3748;48.136;11.538;2023-02-18T01:57:13;3.63;;;2.93;;
7412;SDS011;3748;48.136;11.538;2023-02-18T01:59:44;4.50;;;2.87;;
7412;SDS011;3748;48.136;11.538;2023-02-18T02:02:14;4.10;;;3.20;;
7412;SDS011;3748;48.136;11.538;2023-02-18T02:04:45;3.83;;;2.87;;
7412;SDS011;3748;48.136;11.538;2023-02-18T02:07:12;2.90;;;2.60;;
7412;SDS011;3748;48.136;11.538;2023-02-18T02:09:40;4.20;;;2.80;;
7412;SDS011;3748;48.136;11.538;2023-02-18T02:12:19;3.47;;;3.17;;
7412;SDS011;3748;48.136;11.538;2023-02-18T02:15:00;6.17;;;3.30;;
7412;SDS011;3748;48.136;11.538;2023-02-18T02:17:38;3.03;;;2.63;;
7412;SDS011;3748;48.136;11.538;2023-02-18T02:20:20;5.70;;;3.30;;
7412;SDS011;3748;48.136;11.538;2023-02-18T02:26:37;3.90;;;3.10;;
7412;SDS011;3748;48.136;11.538;2023-02-18T02:35:42;3.73;;;3.43;;
7412;SDS011;3748;48.136;11.538;2023-02-18T02:38:16;3.00;;;2.70;;
7412;SDS011;3748;48.136;11.538;2023-02-18T02:40:47;3.30;;;3.00;;
7412;SDS011;3748;48.136;11.538;2023-02-18T02:43:24;2.67;;;1.90;;
7412;SDS011;3748;48.136;11.538;2023-02-18T02:46:00;2.90;;;2.10;;
7412;SDS011;3748;48.136;11.538;2023-02-18T02:48:32;3.20;;;2.23;;
7412;SDS011;3748;48.136;11.538;2023-02-18T02:51:06;3.50;;;2.70;;
7412;SDS011;3748;48.136;11.538;2023-02-18T02:53:36;6.10;;;2.67;;
7412;SDS011;3748;48.136;11.538;2023-02-18T02:56:05;2.93;;;2.57;;
7412;SDS011;3748;48.136;11.538;2023-02-18T02:58:35;4.47;;;1.70;;
7412;SDS011;3748;48.136;11.538;2023-02-18T03:01:06;3.77;;;1.90;;
7412;SDS011;3748;48.136;11.538;2023-02-18T03:03:46;2.40;;;2.20;;
7412;SDS011;3748;48.136;11.538;2023-02-18T03:06:50;2.33;;;2.13;;
7412;SDS011;3748;48.136;11.538;2023-02-18T03:09:39;2.20;;;2.00;;
7412;SDS011;3748;48.136;11.538;2023-02-18T03:12:22;1.80;;;1.60;;
7412;SDS011;3748;48.136;11.538;2023-02-18T03:14:55;2.70;;;2.10;;
7412;SDS011;3748;48.136;11.538;2023-02-18T03:17:29;2.13;;;1.70;;
7412;SDS011;3748;48.136;11.538;2023-02-18T03:20:02;3.00;;;1.90;;
7412;SDS011;3748;48.136;11.538;2023-02-18T03:22:36;1.57;;;1.47;;
7412;SDS011;3748;48.136;11.538;2023-02-18T03:25:06;1.93;;;1.83;;
7412;SDS011;3748;48.136;11.538;2023-02-18T03:27:36;4.83;;;1.57;;
7412;SDS011;3748;48.136;11.538;2023-02-18T03:30:10;1.40;;;1.30;;
7412;SDS011;3748;48.136;11.538;2023-02-18T03:32:41;1.97;;;1.70;;
7412;SDS011;3748;48.136;11.538;2023-02-18T03:35:09;2.33;;;1.40;;
7412;SDS011;3748;48.136;11.538;2023-02-18T03:37:41;2.27;;;1.57;;
7412;SDS011;3748;48.136;11.538;2023-02-18T03:40:13;2.07;;;1.50;;
7412;SDS011;3748;48.136;11.538;2023-02-18T03:42:40;1.80;;;1.70;;
7412;SDS011;3748;48.136;11.538;2023-02-18T03:45:07;2.43;;;1.40;;
7412;SDS011;3748;48.136;11.538;2023-02-18T03:47:34;1.70;;;1.60;;
7412;SDS011;3748;48.136;11.538;2023-02-18T03:50:01;1.70;;;1.60;;
7412;SDS011;3748;48.136;11.538;2023-02-18T03:52:28;1.70;;;1.50;;
7412;SDS011;3748;48.136;11.538;2023-02-18T03:54:56;2.30;;;1.60;;
7412;SDS011;3748;48.136;11.538;2023-02-18T03:57:23;1.60;;;1.50;;
7412;SDS011;3748;48.136;11.538;2023-02-18T03:59:49;1.43;;;1.33;;
7412;SDS011;3748;48.136;11.538;2023-02-18T04:02:16;2.47;;;1.60;;
7412;SDS011;3748;48.136;11.538;2023-02-18T04:04:43;1.70;;;1.60;;
7412;SDS011;3748;48.136;11.538;2023-02-18T04:07:10;1.60;;;1.50;;
7412;SDS011;3748;48.136;11.538;2023-02-18T04:09:37;12.83;;;3.40;;
7412;SDS011;3748;48.136;11.538;2023-02-18T04:12:05;1.90;;;1.80;;
7412;SDS011;3748;48.136;11.538;2023-02-18T04:14:32;1.97;;;1.63;;
7412;SDS011;3748;48.136;11.538;2023-02-18T04:17:00;2.60;;;2.00;;
7412;SDS011;3748;48.136;11.538;2023-02-18T04:19:27;3.47;;;1.73;;
7412;SDS011;3748;48.136;11.538;2023-02-18T04:21:54;2.50;;;2.30;;
7412;SDS011;3748;48.136;11.538;2023-02-18T04:24:21;2.40;;;2.20;;
7412;SDS011;3748;48.136;11.538;2023-02-18T04:26:48;1.60;;;1.50;;
7412;SDS011;3748;48.136;11.538;2023-02-18T04:29:17;1.83;;;1.63;;
7412;SDS011;3748;48.136;11.538;2023-02-18T04:31:44;2.20;;;2.00;;
7412;SDS011;3748;48.136;11.538;2023-02-18T04:34:11;1.90;;;1.70;;
7412;SDS011;3748;48.136;11.538;2023-02-18T04:36:38;4.07;;;2.97;;
7412;SDS011;3748;48.136;11.538;2023-02-18T04:39:06;2.10;;;1.90;;
7412;SDS011;3748;48.136;11.538;2023-02-18T04:41:33;2.80;;;2.43;;
7412;SDS011;3748;48.136;11.538;2023-02-18T04:44:00;2.50;;;1.60;;
7412;SDS011;3748;48.136;11.538;2023-02-18T04:46:29;2.93;;;2.10;;
7412;SDS011;3748;48.136;11.538;2023-02-18T04:48:56;2.47;;;2.27;;
7412;SDS011;3748;48.136;11.538;2023-02-18T04:51:23;2.00;;;1.80;;
7412;SDS011;3748;48.136;11.538;2023-02-18T04:53:50;1.70;;;1.50;;
7412;SDS011;3748;48.136;11.538;2023-02-18T04:56:17;1.70;;;1.53;;
7412;SDS011;3748;48.136;11.538;2023-02-18T04:58:44;2.03;;;1.83;;
7412;SDS011;3748;48.136;11.538;2023-02-18T05:01:11;2.00;;;1.80;;
7412;SDS011;3748;48.136;11.538;2023-02-18T05:03:40;2.80;;;1.70;;
7412;SDS011;3748;48.136;11.538;2023-02-18T05:06:09;3.00;;;1.90;;
7412;SDS011;3748;48.136;11.538;2023-02-18T05:08:37;2.83;;;1.70;;
7412;SDS011;3748;48.136;11.538;2023-02-18T05:11:04;3.67;;;1.70;;
7412;SDS011;3748;48.136;11.538;2023-02-18T05:13:32;2.03;;;1.40;;
7412;SDS011;3748;48.136;11.538;2023-02-18T05:15:59;2.73;;;1.97;;
7412;SDS011;3748;48.136;11.538;2023-02-18T05:18:26;2.70;;;1.73;;
7412;SDS011;3748;48.136;11.538;2023-02-18T05:20:55;2.17;;;1.97;;
7412;SDS011;3748;48.136;11.538;2023-02-18T05:23:22;1.83;;;1.40;;
7412;SDS011;3748;48.136;11.538;2023-02-18T05:25:49;2.07;;;1.77;;
7412;SDS011;3748;48.136;11.538;2023-02-18T05:28:17;1.67;;;1.53;;
7412;SDS011;3748;48.136;11.538;2023-02-18T05:30:44;1.83;;;1.20;;
7412;SDS011;3748;48.136;11.538;2023-02-18T05:33:11;2.53;;;1.80;;
7412;SDS011;3748;48.136;11.538;2023-02-18T05:35:38;1.20;;;1.10;;
7412;SDS011;3748;48.136;11.538;2023-02-18T05:38:07;1.30;;;1.20;;
7412;SDS011;3748;48.136;11.538;2023-02-18T05:40:34;1.60;;;1.50;;
7412;SDS011;3748;48.136;11.538;2023-02-18T05:43:02;1.77;;;1.00;;
7412;SDS011;3748;48.136;11.538;2023-02-18T05:45:29;2.17;;;1.13;;
7412;SDS011;3748;48.136;11.538;2023-02-18T05:47:55;1.07;;;0.97;;
7412;SDS011;3748;48.136;11.538;2023-02-18T05:50:22;1.40;;;1.10;;
7412;SDS011;3748;48.136;11.538;2023-02-18T05:52:49;2.00;;;1.10;;
7412;SDS011;3748;48.136;11.538;2023-02-18T05:55:17;1.50;;;0.90;;
7412;SDS011;3748;48.136;11.538;2023-02-18T05:57:44;1.40;;;1.00;;
7412;SDS011;3748;48.136;11.538;2023-02-18T06:00:11;2.83;;;1.00;;
7412;SDS011;3748;48.136;11.538;2023-02-18T06:02:39;1.73;;;1.03;;
7412;SDS011;3748;48.136;11.538;2023-02-18T06:05:06;1.17;;;1.00;;
7412;SDS011;3748;48.136;11.538;2023-02-18T06:07:33;1.07;;;0.90;;
7412;SDS011;3748;48.136;11.538;2023-02-18T06:10:00;2.20;;;1.20;;
7412;SDS011;3748;48.136;11.538;2023-02-18T06:12:28;0.90;;;0.80;;
7412;SDS011;3748;48.136;11.538;2023-02-18T06:14:55;1.10;;;0.87;;
7412;SDS011;3748;48.136;11.538;2023-02-18T06:17:22;1.00;;;0.87;;
7412;SDS011;3748;48.136;11.538;2023-02-18T06:19:49;1.13;;;0.90;;
7412;SDS011;3748;48.136;11.538;2023-02-18T06:22:16;1.07;;;0.97;;
7412;SDS011;3748;48.136;11.538;2023-02-18T06:24:44;5.73;;;1.10;;
7412;SDS011;3748;48.136;11.538;2023-02-18T06:27:11;1.00;;;0.80;;
7412;SDS011;3748;48.136;11.538;2023-02-18T06:29:42;0.90;;;0.73;;
7412;SDS011;3748;48.136;11.538;2023-02-18T06:32:09;1.07;;;0.87;;
7412;SDS011;3748;48.136;11.538;2023-02-18T06:34:36;3.27;;;1.23;;
7412;SDS011;3748;48.136;11.538;2023-02-18T06:37:03;1.10;;;1.00;;
7412;SDS011;3748;48.136;11.538;2023-02-18T06:39:30;1.00;;;0.90;;
7412;SDS011;3748;48.136;11.538;2023-02-18T06:41:58;1.40;;;0.97;;
7412;SDS011;3748;48.136;11.538;2023-02-18T06:44:25;1.17;;;0.83;;
7412;SDS011;3748;48.136;11.538;2023-02-18T06:46:53;1.00;;;0.90;;
7412;SDS011;3748;48.136;11.538;2023-02-18T06:49:20;0.80;;;0.70;;
7412;SDS011;3748;48.136;11.538;2023-02-18T06:51:47;1.10;;;0.87;;
7412;SDS011;3748;48.136;11.538;2023-02-18T06:54:14;1.30;;;0.90;;
7412;SDS011;3748;48.136;11.538;2023-02-18T06:56:41;1.20;;;1.00;;
7412;SDS011;3748;48.136;11.538;2023-02-18T06:59:08;1.70;;;1.00;;
7412;SDS011;3748;48.136;11.538;2023-02-18T07:01:36;1.20;;;1.10;;
7412;SDS011;3748;48.136;11.538;2023-02-18T07:04:04;1.30;;;1.20;;
7412;SDS011;3748;48.136;11.538;2023-02-18T07:06:31;0.90;;;0.70;;
7412;SDS011;3748;48.136;11.538;2023-02-18T07:08:58;1.00;;;0.90;;
7412;SDS011;3748;48.136;11.538;2023-02-18T07:11:25;1.10;;;0.90;;
7412;SDS011;3748;48.136;11.538;2023-02-18T07:13:52;3.23;;;1.10;;
7412;SDS011;3748;48.136;11.538;2023-02-18T07:16:20;1.10;;;0.97;;
7412;SDS011;3748;48.136;11.538;2023-02-18T07:18:47;1.20;;;0.90;;
7412;SDS011;3748;48.136;11.538;2023-02-18T07:21:15;1.00;;;0.90;;
7412;SDS011;3748;48.136;11.538;2023-02-18T07:23:42;0.90;;;0.80;;
7412;SDS011;3748;48.136;11.538;2023-02-18T07:26:10;1.00;;;0.87;;
7412;SDS011;3748;48.136;11.538;2023-02-18T07:28:37;1.67;;;0.80;;
7412;SDS011;3748;48.136;11.538;2023-02-18T07:31:05;2.90;;;0.90;;
7412;SDS011;3748;48.136;11.538;2023-02-18T07:33:32;0.90;;;0.83;;
7412;SDS011;3748;48.136;11.538;2023-02-18T07:36:00;0.93;;;0.83;;
7412;SDS011;3748;48.136;11.538;2023-02-18T07:38:29;0.93;;;0.83;;
7412;SDS011;3748;48.136;11.538;2023-02-18T07:40:56;1.33;;;0.90;;
7412;SDS011;3748;48.136;11.538;2023-02-18T07:43:24;1.03;;;0.90;;
7412;SDS011;3748;48.136;11.538;2023-02-18T07:45:51;1.00;;;0.90;;
7412;SDS011;3748;48.136;11.538;2023-02-18T07:48:18;0.80;;;0.70;;
7412;SDS011;3748;48.136;11.538;2023-02-18T07:50:45;1.10;;;0.90;;
7412;SDS011;3748;48.136;11.538;2023-02-18T07:53:13;1.10;;;1.00;;
7412;SDS011;3748;48.136;11.538;2023-02-18T07:55:42;2.13;;;0.97;;
7412;SDS011;3748;48.136;11.538;2023-02-18T07:58:19;1.97;;;1.13;;
7412;SDS011;3748;48.136;11.538;2023-02-18T08:00:46;2.80;;;1.00;;
7412;SDS011;3748;48.136;11.538;2023-02-18T08:03:14;2.23;;;1.40;;
7412;SDS011;3748;48.136;11.538;2023-02-18T08:05:41;1.10;;;1.00;;
7412;SDS011;3748;48.136;11.538;2023-02-18T08:08:11;1.47;;;1.07;;
7412;SDS011;3748;48.136;11.538;2023-02-18T08:10:38;1.60;;;1.10;;
7412;SDS011;3748;48.136;11.538;2023-02-18T08:13:07;1.47;;;1.13;;
7412;SDS011;3748;48.136;11.538;2023-02-18T08:15:34;1.10;;;0.90;;
7412;SDS011;3748;48.136;11.538;2023-02-18T08:18:02;1.00;;;0.90;;
7412;SDS011;3748;48.136;11.538;2023-02-18T08:20:29;2.50;;;1.23;;
7412;SDS011;3748;48.136;11.538;2023-02-18T08:22:56;2.70;;;1.20;;
7412;SDS011;3748;48.136;11.538;2023-02-18T08:25:23;1.10;;;0.90;;
7412;SDS011;3748;48.136;11.538;2023-02-18T08:27:50;1.83;;;0.90;;
7412;SDS011;3748;48.136;11.538;2023-02-18T08:30:19;1.60;;;0.90;;
7412;SDS011;3748;48.136;11.538;2023-02-18T08:32:46;3.37;;;1.13;;
7412;SDS011;3748;48.136;11.538;2023-02-18T08:35:13;1.10;;;1.00;;
7412;SDS011;3748;48.136;11.538;2023-02-18T08:37:40;1.53;;;1.10;;
7412;SDS011;3748;48.136;11.538;2023-02-18T08:40:08;1.83;;;1.20;;
7412;SDS011;3748;48.136;11.538;2023-02-18T08:42:35;1.93;;;1.00;;
7412;SDS011;3748;48.136;11.538;2023-02-18T08:45:02;2.30;;;1.30;;
7412;SDS011;3748;48.136;11.538;2023-02-18T08:47:31;2.00;;;1.10;;
7412;SDS011;3748;48.136;11.538;2023-02-18T08:49:58;0.97;;;0.87;;
7412;SDS011;3748;48.136;11.538;2023-02-18T08:52:25;1.27;;;1.00;;
7412;SDS011;3748;48.136;11.538;2023-02-18T08:54:53;1.10;;;1.00;;
7412;SDS011;3748;48.136;11.538;2023-02-18T08:57:20;1.50;;;1.20;;
7412;SDS011;3748;48.136;11.538;2023-02-18T08:59:47;1.30;;;1.20;;
7412;SDS011;3748;48.136;11.538;2023-02-18T09:02:14;5.63;;;1.20;;
7412;SDS011;3748;48.136;11.538;2023-02-18T09:04:42;2.87;;;1.43;;
7412;SDS011;3748;48.136;11.538;2023-02-18T09:07:10;1.20;;;1.10;;
7412;SDS011;3748;48.136;11.538;2023-02-18T09:09:37;1.67;;;1.20;;
7412;SDS011;3748;48.136;11.538;2023-02-18T09:12:04;1.40;;;1.10;;
7412;SDS011;3748;48.136;11.538;2023-02-18T09:14:31;1.60;;;1.23;;
7412;SDS011;3748;48.136;11.538;2023-02-18T09:16:58;1.30;;;1.20;;
7412;SDS011;3748;48.136;11.538;2023-02-18T09:19:26;1.70;;;1.40;;
7412;SDS011;3748;48.136;11.538;2023-02-18T09:21:54;5.57;;;1.40;;
7412;SDS011;3748;48.136;11.538;2023-02-18T09:24:21;1.50;;;1.13;;
7412;SDS011;3748;48.136;11.538;2023-02-18T09:26:49;1.57;;;1.00;;
7412;SDS011;3748;48.136;11.538;2023-02-18T09:29:16;2.70;;;1.30;;
7412;SDS011;3748;48.136;11.538;2023-02-18T09:31:44;3.57;;;1.47;;
7412;SDS011;3748;48.136;11.538;2023-02-18T09:34:11;1.20;;;1.10;;
7412;SDS011;3748;48.136;11.538;2023-02-18T09:36:38;1.63;;;1.20;;
7412;SDS011;3748;48.136;11.538;2023-02-18T09:39:06;1.50;;;1.40;;
7412;SDS011;3748;48.136;11.538;2023-02-18T09:41:35;1.70;;;1.27;;
7412;SDS011;3748;48.136;11.538;2023-02-18T09:44:04;1.57;;;1.40;;
7412;SDS011;3748;48.136;11.538;2023-02-18T09:46:32;2.13;;;1.13;;
7412;SDS011;3748;48.136;11.538;2023-02-18T09:49:01;3.43;;;1.03;;
7412;SDS011;3748;48.136;11.538;2023-02-18T09:51:28;2.00;;;1.60;;
7412;SDS011;3748;48.136;11.538;2023-02-18T09:53:56;1.80;;;1.27;;
7412;SDS011;3748;48.136;11.538;2023-02-18T09:56:27;1.27;;;1.13;;
7412;SDS011;3748;48.136;11.538;2023-02-18T09:58:55;1.17;;;1.07;;
7412;SDS011;3748;48.136;11.538;2023-02-18T10:01:24;1.97;;;1.37;;
7412;SDS011;3748;48.136;11.538;2023-02-18T10:03:54;1.40;;;1.23;;
7412;SDS011;3748;48.136;11.538;2023-02-18T10:06:24;1.40;;;1.30;;
7412;SDS011;3748;48.136;11.538;2023-02-18T10:08:52;1.70;;;1.10;;
7412;SDS011;3748;48.136;11.538;2023-02-18T10:11:21;2.80;;;1.30;;
7412;SDS011;3748;48.136;11.538;2023-02-18T10:13:50;2.03;;;1.13;;
7412;SDS011;3748;48.136;11.538;2023-02-18T10:16:19;2.17;;;1.60;;
7412;SDS011;3748;48.136;11.538;2023-02-18T10:18:48;1.47;;;1.10;;
7412;SDS011;3748;48.136;11.538;2023-02-18T10:21:17;1.63;;;1.20;;
7412;SDS011;3748;48.136;11.538;2023-02-18T10:23:49;1.60;;;1.50;;
7412;SDS011;3748;48.136;11.538;2023-02-18T10:26:19;5.63;;;1.77;;
7412;SDS011;3748;48.136;11.538;2023-02-18T10:28:46;2.13;;;1.10;;
7412;SDS011;3748;48.136;11.538;2023-02-18T10:31:16;2.07;;;1.47;;
7412;SDS011;3748;48.136;11.538;2023-02-18T10:33:45;1.47;;;1.33;;
7412;SDS011;3748;48.136;11.538;2023-02-18T10:36:23;1.20;;;1.00;;
7412;SDS011;3748;48.136;11.538;2023-02-18T10:41:40;6.50;;;1.53;;
7412;SDS011;3748;48.136;11.538;2023-02-18T10:44:12;1.80;;;1.20;;
7412;SDS011;3748;48.136;11.538;2023-02-18T10:46:47;3.70;;;1.70;;
7412;SDS011;3748;48.136;11.538;2023-02-18T10:49:26;2.37;;;1.50;;
7412;SDS011;3748;48.136;11.538;2023-02-18T10:51:55;2.17;;;1.00;;
7412;SDS011;3748;48.136;11.538;2023-02-18T10:54:24;2.40;;;1.07;;
7412;SDS011;3748;48.136;11.538;2023-02-18T10:56:52;1.40;;;1.30;;
7412;SDS011;3748;48.136;11.538;2023-02-18T10:59:24;2.50;;;1.10;;
7412;SDS011;3748;48.136;11.538;2023-02-18T11:01:55;2.57;;;1.40;;
7412;SDS011;3748;48.136;11.538;2023-02-18T11:04:24;1.40;;;1.30;;
7412;SDS011;3748;48.136;11.538;2023-02-18T11:06:52;1.90;;;1.70;;
7412;SDS011;3748;48.136;11.538;2023-02-18T11:09:27;2.63;;;1.30;;
7412;SDS011;3748;48.136;11.538;2023-02-18T11:12:00;1.70;;;1.13;;
7412;SDS011;3748;48.136;11.538;2023-02-18T11:14:38;1.30;;;1.20;;
7412;SDS011;3748;48.136;11.538;2023-02-18T11:17:08;4.03;;;1.20;;
7412;SDS011;3748;48.136;11.538;2023-02-18T11:19:36;2.07;;;1.53;;
7412;SDS011;3748;48.136;11.538;2023-02-18T11:22:07;1.13;;;1.00;;
7412;SDS011;3748;48.136;11.538;2023-02-18T11:24:39;2.50;;;1.10;;
7412;SDS011;3748;48.136;11.538;2023-02-18T11:27:12;1.30;;;1.10;;
7412;SDS011;3748;48.136;11.538;2023-02-18T11:29:43;1.30;;;1.20;;
7412;SDS011;3748;48.136;11.538;2023-02-18T11:32:12;3.87;;;1.40;;
7412;SDS011;3748;48.136;11.538;2023-02-18T11:34:40;1.90;;;1.13;;
7412;SDS011;3748;48.136;11.538;2023-02-18T11:37:08;2.20;;;1.30;;
7412;SDS011;3748;48.136;11.538;2023-02-18T11:39:36;3.33;;;1.47;;
7412;SDS011;3748;48.136;11.538;2023-02-18T11:42:10;2.07;;;1.30;;
7412;SDS011;3748;48.136;11.538;2023-02-18T11:44:39;1.67;;;1.00;;
7412;SDS011;3748;48.136;11.538;2023-02-18T11:47:19;1.80;;;1.17;;
7412;SDS011;3748;48.136;11.538;2023-02-18T11:49:58;2.23;;;1.10;;
7412;SDS011;3748;48.136;11.538;2023-02-18T11:52:25;1.47;;;1.30;;
7412;SDS011;3748;48.136;11.538;2023-02-18T11:54:58;1.20;;;1.10;;
7412;SDS011;3748;48.136;11.538;2023-02-18T11:57:26;4.03;;;1.10;;
7412;SDS011;3748;48.136;11.538;2023-02-18T12:02:59;3.03;;;0.90;;
7412;SDS011;3748;48.136;11.538;2023-02-18T12:05:28;2.00;;;0.90;;
7412;SDS011;3748;48.136;11.538;2023-02-18T12:07:57;1.63;;;0.90;;
7412;SDS011;3748;48.136;11.538;2023-02-18T12:10:26;2.80;;;1.20;;
7412;SDS011;3748;48.136;11.538;2023-02-18T12:12:56;1.93;;;1.30;;
7412;SDS011;3748;48.136;11.538;2023-02-18T12:15:26;1.20;;;1.00;;
7412;SDS011;3748;48.136;11.538;2023-02-18T12:18:01;2.93;;;1.10;;
7412;SDS011;3748;48.136;11.538;2023-02-18T12:20:48;2.30;;;1.20;;
7412;SDS011;3748;48.136;11.538;2023-02-18T12:23:18;3.37;;;1.40;;
7412;SDS011;3748;48.136;11.538;2023-02-18T12:25:51;1.13;;;0.87;;
7412;SDS011;3748;48.136;11.538;2023-02-18T12:28:24;1.17;;;1.00;;
7412;SDS011;3748;48.136;11.538;2023-02-18T12:31:01;2.40;;;1.30;;
7412;SDS011;3748;48.136;11.538;2023-02-18T12:33:40;1.53;;;1.27;;
7412;SDS011;3748;48.136;11.538;2023-02-18T12:36:14;2.37;;;1.10;;
7412;SDS011;3748;48.136;11.538;2023-02-18T12:38:51;1.60;;;1.50;;
7412;SDS011;3748;48.136;11.538;2023-02-18T12:41:27;1.97;;;1.50;;
7412;SDS011;3748;48.136;11.538;2023-02-18T12:43:58;1.93;;;1.20;;
7412;SDS011;3748;48.136;11.538;2023-02-18T12:46:34;1.33;;;1.10;;
7412;SDS011;3748;48.136;11.538;2023-02-18T12:49:16;3.30;;;1.60;;
7412;SDS011;3748;48.136;11.538;2023-02-18T12:52:00;1.93;;;1.20;;
7412;SDS011;3748;48.136;11.538;2023-02-18T12:54:36;2.77;;;1.27;;
7412;SDS011;3748;48.136;11.538;2023-02-18T12:57:16;1.90;;;1.33;;
7412;SDS011;3748;48.136;11.538;2023-02-18T12:59:51;1.53;;;1.27;;
7412;SDS011;3748;48.136;11.538;2023-02-18T13:02:27;1.43;;;1.30;;
7412;SDS011;3748;48.136;11.538;2023-02-18T13:05:00;1.97;;;1.07;;
7412;SDS011;3748;48.136;11.538;2023-02-18T13:07:37;2.30;;;1.27;;
7412;SDS011;3748;48.136;11.538;2023-02-18T13:10:18;1.20;;;1.03;;
7412;SDS011;3748;48.136;11.538;2023-02-18T13:12:47;1.43;;;1.17;;
7412;SDS011;3748;48.136;11.538;2023-02-18T13:15:17;1.40;;;1.10;;
7412;SDS011;3748;48.136;11.538;2023-02-18T13:17:45;1.63;;;1.33;;
7412;SDS011;3748;48.136;11.538;2023-02-18T13:20:16;1.40;;;1.20;;
7412;SDS011;3748;48.136;11.538;2023-02-18T13:22:44;1.93;;;1.20;;
7412;SDS011;3748;48.136;11.538;2023-02-18T13:25:14;1.77;;;1.10;;
7412;SDS011;3748;48.136;11.538;2023-02-18T13:27:42;7.53;;;1.83;;
7412;SDS011;3748;48.136;11.538;2023-02-18T13:30:17;1.50;;;1.33;;
7412;SDS011;3748;48.136;11.538;2023-02-18T13:32:47;1.70;;;1.17;;
7412;SDS011;3748;48.136;11.538;2023-02-18T13:35:20;1.90;;;1.30;;
7412;SDS011;3748;48.136;11.538;2023-02-18T13:37:52;1.67;;;1.37;;
7412;SDS011;3748;48.136;11.538;2023-02-18T13:40:22;1.90;;;1.10;;
7412;SDS011;3748;48.136;11.538;2023-02-18T13:42:52;1.40;;;1.20;;
7412;SDS011;3748;48.136;11.538;2023-02-18T13:45:24;2.20;;;1.47;;
7412;SDS011;3748;48.136;11.538;2023-02-18T13:47:51;1.27;;;1.17;;
7412;SDS011;3748;48.136;11.538;2023-02-18T13:50:28;2.80;;;1.40;;
7412;SDS011;3748;48.136;11.538;2023-02-18T13:53:10;1.37;;;1.27;;
7412;SDS011;3748;48.136;11.538;2023-02-18T13:55:39;1.50;;;1.20;;
7412;SDS011;3748;48.136;11.538;2023-02-18T13:58:10;1.67;;;1.43;;
7412;SDS011;3748;48.136;11.538;2023-02-18T14:00:39;1.40;;;1.10;;
7412;SDS011;3748;48.136;11.538;2023-02-18T14:03:18;1.30;;;1.20;;
7412;SDS011;3748;48.136;11.538;2023-02-18T14:05:47;8.90;;;1.47;;
7412;SDS011;3748;48.136;11.538;2023-02-18T14:08:27;1.37;;;1.27;;
7412;SDS011;3748;48.136;11.538;2023-02-18T14:13:37;3.20;;;1.40;;
7412;SDS011;3748;48.136;11.538;2023-02-18T14:16:05;1.80;;;1.43;;
7412;SDS011;3748;48.136;11.538;2023-02-18T14:21:33;1.50;;;1.23;;
7412;SDS011;3748;48.136;11.538;2023-02-18T14:24:02;2.13;;;1.57;;
7412;SDS011;3748;48.136;11.538;2023-02-18T14:26:31;1.43;;;1.33;;
7412;SDS011;3748;48.136;11.538;2023-02-18T14:29:00;2.60;;;1.40;;
7412;SDS011;3748;48.136;11.538;2023-02-18T14:31:32;2.23;;;1.30;;
7412;SDS011;3748;48.136;11.538;2023-02-18T14:34:11;1.50;;;1.23;;
7412;SDS011;3748;48.136;11.538;2023-02-18T14:36:41;1.40;;;1.30;;
7412;SDS011;3748;48.136;11.538;2023-02-18T14:39:13;2.70;;;1.43;;
7412;SDS011;3748;48.136;11.538;2023-02-18T14:41:52;1.83;;;1.30;;
7412;SDS011;3748;48.136;11.538;2023-02-18T14:44:29;1.90;;;1.70;;
7412;SDS011;3748;48.136;11.538;2023-02-18T14:47:05;1.10;;;1.00;;
7412;SDS011;3748;48.136;11.538;2023-02-18T14:49:37;2.90;;;1.40;;
7412;SDS011;3748;48.136;11.538;2023-02-18T14:52:09;1.60;;;1.50;;
7412;SDS011;3748;48.136;11.538;2023-02-18T14:54:38;2.20;;;1.50;;
7412;SDS011;3748;48.136;11.538;2023-02-18T14:57:06;5.63;;;1.40;;
7412;SDS011;3748;48.136;11.538;2023-02-18T14:59:36;1.50;;;1.40;;
7412;SDS011;3748;48.136;11.538;2023-02-18T15:02:08;1.20;;;1.10;;
7412;SDS011;3748;48.136;11.538;2023-02-18T15:04:40;2.60;;;1.20;;
7412;SDS011;3748;48.136;11.538;2023-02-18T15:07:11;1.50;;;1.40;;
7412;SDS011;3748;48.136;11.538;2023-02-18T15:09:43;1.60;;;1.50;;
7412;SDS011;3748;48.136;11.538;2023-02-18T15:12:13;2.20;;;1.40;;
7412;SDS011;3748;48.136;11.538;2023-02-18T15:14:45;1.40;;;1.30;;
7412;SDS011;3748;48.136;11.538;2023-02-18T15:17:18;1.53;;;1.20;;
7412;SDS011;3748;48.136;11.538;2023-02-18T15:19:46;1.53;;;1.20;;
7412;SDS011;3748;48.136;11.538;2023-02-18T15:22:16;1.20;;;1.10;;
7412;SDS011;3748;48.136;11.538;2023-02-18T15:24:44;1.87;;;1.03;;
7412;SDS011;3748;48.136;11.538;2023-02-18T15:27:11;1.20;;;1.10;;
7412;SDS011;3748;48.136;11.538;2023-02-18T15:29:39;1.77;;;1.27;;
7412;SDS011;3748;48.136;11.538;2023-02-18T15:32:13;1.20;;;0.90;;
7412;SDS011;3748;48.136;11.538;2023-02-18T15:34:40;1.83;;;1.10;;
7412;SDS011;3748;48.136;11.538;2023-02-18T15:37:09;1.40;;;1.13;;